Terminal Aerodrome Forecast
Issued by NWS

Home | Current Version | Previous Version | Text Only | Print | Product List | Glossary On
Versions: 1 2 3 4 5 6 7 8 9 10 11 12 13 14 15 16 17 18 19 20 21 22 23 24 25 26 27 28
000
FTUS41 KOKX 210500
TAFGON
TAF
KGON 210532Z 2106/2206 VRB03KT P6SM SCT250
     FM210700 VRB03KT 6SM BR FEW003 FEW050 BKN250
      TEMPO 2109/2112 2SM BR BKN003
     FM211300 14007KT P6SM SCT050 SCT100
     FM220000 10004KT P6SM BKN050 BKN100=

USA.gov is the U.S. government's official web portal to all federal, state and local government web resources and services.